Time;durP1;ratioP1;P1;durP2;ratioP2;P2;SDS_P1;SDS_P2;PMS_P1;PMS_P2;Temp;Humidity;BMP_temperature;BMP_pressure;BME280_temperature;BME280_humidity;BME280_pressure;Samples;Min_cycle;Max_cycle;Signal;HPM_P1;HPM_P2
2021/11/10 00:06:34;;;;;;;38.40;19.97;;;;;;;5.15;100.00;101892.98;710764;1184;114135;-73
2021/11/10 00:21:36;;;;;;;43.25;19.45;;;;;;;5.24;100.00;101889.14;710209;1209;115914;-74
2021/11/10 00:36:38;;;;;;;41.68;20.25;;;;;;;5.10;100.00;101867.13;710457;1209;115670;-74
2021/11/10 00:51:40;;;;;;;41.30;21.65;;;;;;;4.97;100.00;101858.95;710394;1185;114698;-74
2021/11/10 01:06:42;;;;;;;42.75;20.25;;;;;;;4.89;100.00;101852.38;709954;1209;115701;-75
2021/11/10 01:21:45;;;;;;;47.25;21.45;;;;;;;4.72;100.00;101827.88;709904;1184;114118;-74
2021/11/10 01:36:48;;;;;;;52.20;22.40;;;;;;;4.70;100.00;101832.30;710536;1212;114635;-74
2021/11/10 01:51:53;;;;;;;45.30;22.65;;;;;;;4.50;100.00;101830.47;710394;1198;114641;-74
2021/11/10 02:06:55;;;;;;;56.70;25.55;;;;;;;4.46;100.00;101832.33;710487;1209;115220;-73
2021/11/10 02:21:58;;;;;;;55.07;24.70;;;;;;;4.39;100.00;101835.22;710345;1184;114164;-74
2021/11/10 02:37:01;;;;;;;61.17;26.27;;;;;;;4.35;100.00;101833.64;710551;1183;116054;-74
2021/11/10 02:52:06;;;;;;;61.00;27.65;;;;;;;4.34;100.00;101822.38;710032;1209;115534;-73
2021/11/10 03:07:08;;;;;;;65.80;29.75;;;;;;;4.35;100.00;101805.89;709890;1184;113680;-73
2021/11/10 03:22:13;;;;;;;292.30;102.85;;;;;;;4.37;100.00;101803.23;710123;1212;114213;-73
2021/11/10 03:37:15;;;;;;;106.45;42.00;;;;;;;4.30;100.00;101807.81;710208;1209;114581;-74
2021/11/10 03:52:18;;;;;;;117.00;51.80;;;;;;;4.23;100.00;101804.59;710409;1208;114308;-74
2021/11/10 04:07:20;;;;;;;69.00;29.30;;;;;;;4.21;100.00;101805.55;710272;1209;115644;-73
2021/11/10 04:22:23;;;;;;;71.50;30.25;;;;;;;4.23;100.00;101790.77;709969;1186;114206;-74
2021/11/10 04:37:26;;;;;;;68.70;27.10;;;;;;;4.24;100.00;101762.13;710333;1188;114318;-74
2021/11/10 04:52:29;;;;;;;56.95;26.40;;;;;;;4.29;100.00;101746.38;710892;1184;114074;-74
2021/11/10 05:07:32;;;;;;;71.50;31.30;;;;;;;4.28;100.00;101732.53;710039;1209;114073;-74
2021/11/10 05:22:37;;;;;;;83.50;31.80;;;;;;;4.24;100.00;101730.95;710748;1209;114529;-73
2021/11/10 05:37:40;;;;;;;97.90;39.70;;;;;;;4.13;100.00;101715.79;710875;1212;114168;-74
2021/11/10 05:52:43;;;;;;;165.93;57.13;;;;;;;4.07;100.00;101721.20;710845;1208;114128;-74
2021/11/10 06:07:46;;;;;;;73.75;32.20;;;;;;;4.03;100.00;101724.83;710303;1208;115269;-73
2021/11/10 06:22:49;;;;;;;126.55;57.70;;;;;;;3.93;100.00;101716.55;710210;1212;115250;-72
2021/11/10 06:37:52;;;;;;;79.00;32.57;;;;;;;4.05;100.00;101710.05;711307;1209;114936;-72
2021/11/10 06:52:54;;;;;;;64.80;26.30;;;;;;;4.14;100.00;101701.03;710413;1208;115437;-73
2021/11/10 07:07:56;;;;;;;84.40;33.93;;;;;;;4.67;100.00;101684.22;711061;1211;114144;-74
2021/11/10 07:22:59;;;;;;;61.83;28.63;;;;;;;5.19;100.00;101685.53;711195;1187;114643;-75
2021/11/10 07:38:04;;;;;;;72.65;31.85;;;;;;;6.00;100.00;101681.09;710933;1209;115710;-74
2021/11/10 07:53:06;;;;;;;55.00;26.90;;;;;;;6.99;100.00;101689.36;710666;1208;115718;-73
2021/11/10 08:08:08;;;;;;;57.15;26.70;;;;;;;7.41;100.00;101682.85;710891;1209;114029;-71
2021/11/10 08:23:27;;;;;;;48.03;23.53;;;;;;;7.75;100.00;101654.11;711899;1208;114970;-74
2021/11/10 08:38:30;;;;;;;47.27;23.87;;;;;;;8.39;100.00;101680.20;710837;1209;114588;-70
2021/11/10 08:53:34;;;;;;;46.20;23.70;;;;;;;8.70;100.00;101654.91;711310;1209;114151;-70
2021/11/10 09:08:36;;;;;;;44.87;24.27;;;;;;;8.96;100.00;101653.38;711270;1209;115315;-74
2021/11/10 09:23:39;;;;;;;47.77;23.43;;;;;;;9.44;100.00;101632.19;710942;1209;114132;-73
2021/11/10 09:38:42;;;;;;;44.40;24.20;;;;;;;9.59;98.00;101625.14;711422;1212;114959;-73
2021/11/10 09:53:44;;;;;;;41.70;23.15;;;;;;;9.80;94.03;101617.70;711964;1209;115340;-72
2021/11/10 10:08:47;;;;;;;38.43;21.20;;;;;;;10.26;94.83;101619.14;710944;1209;113905;-73
2021/11/10 10:23:51;;;;;;;41.30;24.40;;;;;;;10.79;92.03;101617.36;711560;1208;114816;-73
2021/11/10 10:39:04;;;;;;;36.00;19.65;;;;;;;11.44;88.24;101606.81;710846;1209;114168;-72
2021/11/10 10:54:09;;;;;;;34.35;17.95;;;;;;;11.97;87.91;101564.52;711017;1207;114590;-74
2021/11/10 11:09:22;;;;;;;32.60;17.70;;;;;;;13.02;85.47;101547.83;711483;1183;115029;-74
2021/11/10 11:24:36;;;;;;;28.00;17.10;;;;;;;12.92;81.52;101526.63;710820;1190;114256;-74
2021/11/10 11:39:39;;;;;;;30.75;16.65;;;;;;;13.06;80.41;101544.82;709736;1209;114358;-72
2021/11/10 11:54:45;;;;;;;33.70;19.30;;;;;;;13.75;78.83;101509.48;709858;1208;115110;-74
2021/11/10 12:10:08;;;;;;;31.05;17.35;;;;;;;14.69;77.19;101497.30;711248;1184;114446;-73
2021/11/10 12:25:14;;;;;;;28.60;16.80;;;;;;;14.68;73.79;101483.27;712530;1185;114450;-72
2021/11/10 12:40:26;;;;;;;101.05;49.30;;;;;;;14.40;71.95;101461.03;711000;1184;115229;-69
2021/11/10 12:55:33;;;;;;;27.90;16.20;;;;;;;17.18;68.90;101461.40;710451;1195;114975;-71
2021/11/10 13:10:36;;;;;;;35.00;17.50;;;;;;;19.27;62.42;101449.06;710705;1184;114447;-70
2021/11/10 13:25:38;;;;;;;30.20;17.00;;;;;;;20.21;59.29;101440.70;709882;1186;114230;-71
2021/11/10 13:40:41;;;;;;;34.70;19.50;;;;;;;19.60;58.78;101417.16;710780;1183;114389;-70
2021/11/10 13:55:50;;;;;;;34.00;19.30;;;;;;;13.85;62.77;101387.41;711332;1211;115357;-70
2021/11/10 14:10:59;;;;;;;125.00;52.00;;;;;;;12.32;67.44;101387.38;710119;1208;114832;-69
2021/11/10 14:26:03;;;;;;;;;;;;;;;11.75;70.74;101405.67;710904;1208;114566;-70
2021/11/10 14:41:13;;;;;;;129.20;62.95;;;;;;;11.37;73.03;101377.84;711174;1208;101001;-70
2021/11/10 14:56:18;;;;;;;71.60;37.50;;;;;;;10.76;74.50;101388.41;710725;1209;114493;-70
2021/11/10 15:11:22;;;;;;;58.90;29.70;;;;;;;10.22;76.74;101381.65;710807;1184;114181;-70
2021/11/10 15:26:24;;;;;;;46.10;22.30;;;;;;;9.70;78.56;101379.02;710194;1211;115566;-70
2021/11/10 15:41:27;;;;;;;46.10;23.40;;;;;;;9.27;80.40;101363.52;711015;1191;113986;-70
2021/11/10 15:56:31;;;;;;;51.00;25.45;;;;;;;8.82;82.34;101364.59;710650;1212;115659;-71
2021/11/10 16:11:37;;;;;;;57.20;24.80;;;;;;;8.47;84.33;101361.57;710439;1208;114507;-71
2021/11/10 16:26:42;;;;;;;59.50;33.68;;;;;;;8.50;85.93;101350.94;709849;1211;114894;-71
2021/11/10 16:41:44;;;;;;;65.15;33.50;;;;;;;8.51;87.38;101367.46;710027;1209;114095;-70
2021/11/10 16:56:47;;;;;;;74.30;34.25;;;;;;;8.28;86.61;101362.67;709496;1209;114766;-70
2021/11/10 17:11:49;;;;;;;135.60;58.70;;;;;;;8.08;88.22;101350.00;710189;1208;114624;-71
2021/11/10 17:26:52;;;;;;;359.50;105.45;;;;;;;7.74;89.49;101341.56;710529;1209;114278;-70
2021/11/10 17:41:55;;;;;;;88.40;40.73;;;;;;;7.67;90.01;101330.64;710575;1184;113874;-72
2021/11/10 17:56:58;;;;;;;105.83;48.57;;;;;;;7.42;90.54;101320.80;709915;1187;114148;-74
2021/11/10 18:12:01;;;;;;;130.60;58.35;;;;;;;7.36;91.66;101306.31;710145;1208;114591;-74
2021/11/10 18:27:04;;;;;;;287.40;97.50;;;;;;;7.19;92.00;101273.36;710748;1187;114236;-73
2021/11/10 18:42:07;;;;;;;192.25;73.28;;;;;;;6.90;93.20;101282.87;709643;1209;114210;-71
2021/11/10 18:57:10;;;;;;;87.30;42.03;;;;;;;7.02;93.60;101270.89;710150;1212;114050;-72
2021/11/10 19:27:18;;;;;;;187.25;72.80;;;;;;;6.69;93.80;101274.48;710508;1209;114776;-71
2021/11/10 19:42:21;;;;;;;182.90;76.40;;;;;;;6.47;94.02;101260.88;710420;1184;114177;-71
2021/11/10 19:57:27;;;;;;;165.50;66.90;;;;;;;6.21;93.67;101235.41;710758;1208;114316;-72
2021/11/10 20:12:29;;;;;;;225.40;87.27;;;;;;;5.74;92.94;101248.27;709954;1184;114166;-72
2021/11/10 20:27:35;;;;;;;375.17;137.17;;;;;;;5.66;94.16;101260.81;710226;1184;114281;-73
2021/11/10 20:42:37;;;;;;;85.80;41.90;;;;;;;5.55;93.85;101257.95;710120;1209;114432;-72
2021/11/10 20:57:42;;;;;;;195.38;70.93;;;;;;;5.56;93.82;101246.63;710022;1184;114757;-73
2021/11/10 21:12:45;;;;;;;178.38;63.90;;;;;;;5.15;93.94;101226.98;710734;1199;114660;-74
2021/11/10 21:27:52;;;;;;;162.55;60.80;;;;;;;4.99;94.20;101203.52;711219;1184;114274;-73
2021/11/10 21:42:54;;;;;;;150.85;56.25;;;;;;;4.78;93.87;101221.02;710125;1184;114354;-75
2021/11/10 21:58:13;;;;;;;100.90;41.40;;;;;;;4.73;95.20;101231.63;710137;1184;114409;-74
2021/11/10 22:13:16;;;;;;;159.70;56.10;;;;;;;4.79;96.68;101202.73;710058;1185;114283;-74
2021/11/10 22:28:18;;;;;;;229.40;86.70;;;;;;;4.50;95.04;101198.96;709769;1212;114261;-76
2021/11/10 22:43:20;;;;;;;152.10;59.95;;;;;;;4.44;95.61;101188.85;709844;1187;114157;-73
2021/11/10 22:58:23;;;;;;;131.60;55.75;;;;;;;4.36;96.32;101181.42;710113;1209;114288;-74
2021/11/10 23:13:25;;;;;;;152.05;59.45;;;;;;;4.31;96.91;101179.02;710233;1209;113958;-73
2021/11/10 23:28:28;;;;;;;78.95;35.15;;;;;;;4.20;97.76;101180.45;709666;1208;114581;-73
2021/11/10 23:43:31;;;;;;;69.87;31.63;;;;;;;4.10;97.74;101173.09;709753;1187;113896;-73
2021/11/10 23:58:34;;;;;;;84.80;34.60;;;;;;;4.12;98.80;101184.26;710775;1212;114438;-74
